sensor_id;sensor_type;location;lat;lon;timestamp;P1;durP1;ratioP1;P2;durP2;ratioP2
70026;SDS011;57506;50.092;15.804;2022-12-18T00:00:59;116.82;;;31.38;;
70026;SDS011;57506;50.092;15.804;2022-12-18T00:03:25;116.85;;;30.83;;
70026;SDS011;57506;50.092;15.804;2022-12-18T00:05:51;121.53;;;32.17;;
70026;SDS011;57506;50.092;15.804;2022-12-18T00:08:17;114.33;;;32.97;;
70026;SDS011;57506;50.092;15.804;2022-12-18T00:10:44;137.52;;;35.65;;
70026;SDS011;57506;50.092;15.804;2022-12-18T00:13:11;128.25;;;34.92;;
70026;SDS011;57506;50.092;15.804;2022-12-18T00:15:38;136.43;;;34.20;;
70026;SDS011;57506;50.092;15.804;2022-12-18T00:18:04;160.20;;;39.63;;
70026;SDS011;57506;50.092;15.804;2022-12-18T00:20:30;162.82;;;38.50;;
70026;SDS011;57506;50.092;15.804;2022-12-18T00:22:56;131.85;;;36.33;;
70026;SDS011;57506;50.092;15.804;2022-12-18T00:25:21;142.50;;;37.70;;
70026;SDS011;57506;50.092;15.804;2022-12-18T00:27:47;159.63;;;39.33;;
70026;SDS011;57506;50.092;15.804;2022-12-18T00:30:13;156.77;;;39.37;;
70026;SDS011;57506;50.092;15.804;2022-12-18T00:32:39;144.15;;;35.25;;
70026;SDS011;57506;50.092;15.804;2022-12-18T00:35:05;127.18;;;35.47;;
70026;SDS011;57506;50.092;15.804;2022-12-18T00:37:33;124.83;;;34.07;;
70026;SDS011;57506;50.092;15.804;2022-12-18T00:39:58;113.75;;;34.33;;
70026;SDS011;57506;50.092;15.804;2022-12-18T00:42:24;103.15;;;30.60;;
70026;SDS011;57506;50.092;15.804;2022-12-18T00:45:08;91.30;;;29.40;;
70026;SDS011;57506;50.092;15.804;2022-12-18T00:47:34;89.25;;;29.90;;
70026;SDS011;57506;50.092;15.804;2022-12-18T00:49:59;96.97;;;30.33;;
70026;SDS011;57506;50.092;15.804;2022-12-18T00:52:25;95.00;;;28.92;;
70026;SDS011;57506;50.092;15.804;2022-12-18T00:54:50;106.47;;;31.10;;
70026;SDS011;57506;50.092;15.804;2022-12-18T00:57:16;84.47;;;29.87;;
70026;SDS011;57506;50.092;15.804;2022-12-18T00:59:41;76.30;;;26.40;;
70026;SDS011;57506;50.092;15.804;2022-12-18T01:02:07;79.70;;;27.25;;
70026;SDS011;57506;50.092;15.804;2022-12-18T01:04:32;79.35;;;25.95;;
70026;SDS011;57506;50.092;15.804;2022-12-18T01:06:58;86.20;;;27.10;;
70026;SDS011;57506;50.092;15.804;2022-12-18T01:09:23;92.55;;;29.55;;
70026;SDS011;57506;50.092;15.804;2022-12-18T01:11:49;68.20;;;25.03;;
70026;SDS011;57506;50.092;15.804;2022-12-18T01:14:14;74.73;;;26.20;;
70026;SDS011;57506;50.092;15.804;2022-12-18T01:16:40;86.10;;;28.33;;
70026;SDS011;57506;50.092;15.804;2022-12-18T01:19:05;78.47;;;27.30;;
70026;SDS011;57506;50.092;15.804;2022-12-18T01:21:31;79.83;;;26.70;;
70026;SDS011;57506;50.092;15.804;2022-12-18T01:23:56;70.87;;;27.63;;
70026;SDS011;57506;50.092;15.804;2022-12-18T01:26:22;77.45;;;26.52;;
70026;SDS011;57506;50.092;15.804;2022-12-18T01:28:49;79.10;;;27.30;;
70026;SDS011;57506;50.092;15.804;2022-12-18T01:31:16;92.13;;;29.52;;
70026;SDS011;57506;50.092;15.804;2022-12-18T01:33:45;89.63;;;30.40;;
70026;SDS011;57506;50.092;15.804;2022-12-18T01:38:43;104.28;;;33.08;;
70026;SDS011;57506;50.092;15.804;2022-12-18T01:41:09;114.28;;;33.85;;
70026;SDS011;57506;50.092;15.804;2022-12-18T01:43:45;98.20;;;30.33;;
70026;SDS011;57506;50.092;15.804;2022-12-18T01:46:24;101.13;;;30.30;;
70026;SDS011;57506;50.092;15.804;2022-12-18T01:48:52;95.85;;;28.75;;
70026;SDS011;57506;50.092;15.804;2022-12-18T01:51:20;104.30;;;30.15;;
70026;SDS011;57506;50.092;15.804;2022-12-18T01:53:46;103.13;;;30.93;;
70026;SDS011;57506;50.092;15.804;2022-12-18T01:56:13;97.90;;;31.10;;
70026;SDS011;57506;50.092;15.804;2022-12-18T02:01:16;99.43;;;31.40;;
70026;SDS011;57506;50.092;15.804;2022-12-18T02:03:42;92.07;;;28.97;;
70026;SDS011;57506;50.092;15.804;2022-12-18T02:08:58;83.20;;;29.92;;
70026;SDS011;57506;50.092;15.804;2022-12-18T02:11:43;98.95;;;31.23;;
70026;SDS011;57506;50.092;15.804;2022-12-18T02:16:51;107.70;;;29.17;;
70026;SDS011;57506;50.092;15.804;2022-12-18T02:27:19;104.32;;;31.63;;
70026;SDS011;57506;50.092;15.804;2022-12-18T02:29:51;117.90;;;34.97;;
70026;SDS011;57506;50.092;15.804;2022-12-18T02:32:30;106.22;;;34.10;;
70026;SDS011;57506;50.092;15.804;2022-12-18T02:35:00;110.35;;;31.63;;
70026;SDS011;57506;50.092;15.804;2022-12-18T02:37:29;108.57;;;32.60;;
70026;SDS011;57506;50.092;15.804;2022-12-18T02:39:56;101.13;;;34.45;;
70026;SDS011;57506;50.092;15.804;2022-12-18T02:42:23;125.10;;;35.40;;
70026;SDS011;57506;50.092;15.804;2022-12-18T02:44:50;120.47;;;35.03;;
70026;SDS011;57506;50.092;15.804;2022-12-18T02:47:20;115.05;;;34.53;;
70026;SDS011;57506;50.092;15.804;2022-12-18T02:49:53;114.40;;;33.40;;
70026;SDS011;57506;50.092;15.804;2022-12-18T02:55:27;103.93;;;32.45;;
70026;SDS011;57506;50.092;15.804;2022-12-18T03:05:30;107.25;;;33.08;;
70026;SDS011;57506;50.092;15.804;2022-12-18T03:08:13;115.70;;;34.15;;
70026;SDS011;57506;50.092;15.804;2022-12-18T03:10:45;100.83;;;30.37;;
70026;SDS011;57506;50.092;15.804;2022-12-18T03:16:24;124.93;;;35.22;;
70026;SDS011;57506;50.092;15.804;2022-12-18T03:18:54;107.78;;;33.92;;
70026;SDS011;57506;50.092;15.804;2022-12-18T03:21:26;113.50;;;33.70;;
70026;SDS011;57506;50.092;15.804;2022-12-18T03:23:57;125.20;;;33.30;;
70026;SDS011;57506;50.092;15.804;2022-12-18T03:26:24;107.72;;;35.15;;
70026;SDS011;57506;50.092;15.804;2022-12-18T03:28:59;103.85;;;32.47;;
70026;SDS011;57506;50.092;15.804;2022-12-18T03:31:29;91.30;;;30.88;;
70026;SDS011;57506;50.092;15.804;2022-12-18T03:33:58;100.03;;;29.47;;
70026;SDS011;57506;50.092;15.804;2022-12-18T03:36:29;110.20;;;34.15;;
70026;SDS011;57506;50.092;15.804;2022-12-18T03:38:54;98.20;;;31.00;;
70026;SDS011;57506;50.092;15.804;2022-12-18T03:46:30;96.97;;;30.20;;
70026;SDS011;57506;50.092;15.804;2022-12-18T03:49:09;101.10;;;31.80;;
70026;SDS011;57506;50.092;15.804;2022-12-18T03:51:40;104.30;;;31.97;;
70026;SDS011;57506;50.092;15.804;2022-12-18T03:54:11;89.97;;;31.40;;
70026;SDS011;57506;50.092;15.804;2022-12-18T03:56:42;99.53;;;32.85;;
70026;SDS011;57506;50.092;15.804;2022-12-18T03:59:12;94.35;;;31.00;;
70026;SDS011;57506;50.092;15.804;2022-12-18T04:01:42;95.03;;;30.55;;
70026;SDS011;57506;50.092;15.804;2022-12-18T04:04:12;85.33;;;29.30;;
70026;SDS011;57506;50.092;15.804;2022-12-18T04:06:40;94.18;;;29.15;;
70026;SDS011;57506;50.092;15.804;2022-12-18T04:09:07;94.05;;;31.10;;
70026;SDS011;57506;50.092;15.804;2022-12-18T04:11:33;94.25;;;30.02;;
70026;SDS011;57506;50.092;15.804;2022-12-18T04:13:58;93.37;;;29.83;;
70026;SDS011;57506;50.092;15.804;2022-12-18T04:16:25;82.35;;;28.20;;
70026;SDS011;57506;50.092;15.804;2022-12-18T04:18:51;85.30;;;27.90;;
70026;SDS011;57506;50.092;15.804;2022-12-18T04:21:18;84.53;;;26.73;;
70026;SDS011;57506;50.092;15.804;2022-12-18T04:23:44;73.20;;;24.70;;
70026;SDS011;57506;50.092;15.804;2022-12-18T04:26:09;88.57;;;28.35;;
70026;SDS011;57506;50.092;15.804;2022-12-18T04:28:35;80.77;;;27.60;;
70026;SDS011;57506;50.092;15.804;2022-12-18T04:31:01;85.57;;;26.38;;
70026;SDS011;57506;50.092;15.804;2022-12-18T04:33:26;76.75;;;27.02;;
70026;SDS011;57506;50.092;15.804;2022-12-18T04:35:52;71.82;;;25.17;;
70026;SDS011;57506;50.092;15.804;2022-12-18T04:38:17;81.13;;;28.13;;
70026;SDS011;57506;50.092;15.804;2022-12-18T04:40:43;80.83;;;27.50;;
70026;SDS011;57506;50.092;15.804;2022-12-18T04:43:09;76.88;;;26.70;;
70026;SDS011;57506;50.092;15.804;2022-12-18T04:45:34;80.60;;;27.88;;
70026;SDS011;57506;50.092;15.804;2022-12-18T04:48:00;70.97;;;26.50;;
70026;SDS011;57506;50.092;15.804;2022-12-18T04:50:26;83.63;;;24.75;;
70026;SDS011;57506;50.092;15.804;2022-12-18T04:52:52;70.07;;;22.50;;
70026;SDS011;57506;50.092;15.804;2022-12-18T04:55:18;65.45;;;20.83;;
70026;SDS011;57506;50.092;15.804;2022-12-18T04:57:43;65.25;;;21.55;;
70026;SDS011;57506;50.092;15.804;2022-12-18T05:00:09;67.67;;;22.23;;
70026;SDS011;57506;50.092;15.804;2022-12-18T05:02:35;71.65;;;20.83;;
70026;SDS011;57506;50.092;15.804;2022-12-18T05:05:01;78.27;;;22.60;;
70026;SDS011;57506;50.092;15.804;2022-12-18T05:07:26;66.40;;;20.77;;
70026;SDS011;57506;50.092;15.804;2022-12-18T05:09:52;66.40;;;18.67;;
70026;SDS011;57506;50.092;15.804;2022-12-18T05:12:17;57.13;;;18.00;;
70026;SDS011;57506;50.092;15.804;2022-12-18T05:14:43;57.47;;;18.83;;
70026;SDS011;57506;50.092;15.804;2022-12-18T05:17:08;67.65;;;19.00;;
70026;SDS011;57506;50.092;15.804;2022-12-18T05:19:34;58.55;;;15.77;;
70026;SDS011;57506;50.092;15.804;2022-12-18T05:21:59;46.77;;;15.03;;
70026;SDS011;57506;50.092;15.804;2022-12-18T05:24:26;56.13;;;15.15;;
70026;SDS011;57506;50.092;15.804;2022-12-18T05:26:51;46.27;;;13.63;;
70026;SDS011;57506;50.092;15.804;2022-12-18T05:29:17;44.67;;;13.30;;
70026;SDS011;57506;50.092;15.804;2022-12-18T05:31:42;49.90;;;13.93;;
70026;SDS011;57506;50.092;15.804;2022-12-18T05:34:08;55.45;;;15.70;;
70026;SDS011;57506;50.092;15.804;2022-12-18T05:36:33;56.33;;;14.93;;
70026;SDS011;57506;50.092;15.804;2022-12-18T05:38:59;47.65;;;13.90;;
70026;SDS011;57506;50.092;15.804;2022-12-18T05:41:25;46.08;;;12.30;;
70026;SDS011;57506;50.092;15.804;2022-12-18T05:43:51;43.80;;;13.63;;
70026;SDS011;57506;50.092;15.804;2022-12-18T05:46:16;46.17;;;13.17;;
70026;SDS011;57506;50.092;15.804;2022-12-18T05:48:43;43.78;;;13.45;;
70026;SDS011;57506;50.092;15.804;2022-12-18T05:51:14;43.40;;;12.98;;
70026;SDS011;57506;50.092;15.804;2022-12-18T05:53:40;46.15;;;12.30;;
70026;SDS011;57506;50.092;15.804;2022-12-18T05:56:08;49.53;;;13.98;;
70026;SDS011;57506;50.092;15.804;2022-12-18T05:58:36;44.72;;;14.15;;
70026;SDS011;57506;50.092;15.804;2022-12-18T06:03:35;53.00;;;14.50;;
70026;SDS011;57506;50.092;15.804;2022-12-18T06:06:01;45.45;;;12.65;;
70026;SDS011;57506;50.092;15.804;2022-12-18T06:08:26;50.57;;;13.67;;
70026;SDS011;57506;50.092;15.804;2022-12-18T06:10:52;50.78;;;14.02;;
70026;SDS011;57506;50.092;15.804;2022-12-18T06:13:19;44.60;;;12.40;;
70026;SDS011;57506;50.092;15.804;2022-12-18T06:15:45;44.88;;;13.77;;
70026;SDS011;57506;50.092;15.804;2022-12-18T06:18:11;47.03;;;13.07;;
70026;SDS011;57506;50.092;15.804;2022-12-18T06:20:36;46.38;;;13.07;;
70026;SDS011;57506;50.092;15.804;2022-12-18T06:23:04;45.08;;;12.48;;
70026;SDS011;57506;50.092;15.804;2022-12-18T06:25:31;40.78;;;12.85;;
70026;SDS011;57506;50.092;15.804;2022-12-18T06:27:57;47.67;;;13.63;;
70026;SDS011;57506;50.092;15.804;2022-12-18T06:30:22;42.03;;;13.73;;
70026;SDS011;57506;50.092;15.804;2022-12-18T06:32:48;41.23;;;13.30;;
70026;SDS011;57506;50.092;15.804;2022-12-18T06:35:14;46.17;;;13.52;;
70026;SDS011;57506;50.092;15.804;2022-12-18T06:37:40;41.95;;;13.88;;
70026;SDS011;57506;50.092;15.804;2022-12-18T06:40:06;45.03;;;12.47;;
70026;SDS011;57506;50.092;15.804;2022-12-18T06:42:32;47.08;;;13.15;;
70026;SDS011;57506;50.092;15.804;2022-12-18T06:44:57;43.57;;;14.00;;
70026;SDS011;57506;50.092;15.804;2022-12-18T06:47:23;45.65;;;14.15;;
70026;SDS011;57506;50.092;15.804;2022-12-18T06:49:48;58.93;;;17.57;;
70026;SDS011;57506;50.092;15.804;2022-12-18T06:52:14;49.92;;;14.65;;
70026;SDS011;57506;50.092;15.804;2022-12-18T06:54:41;49.53;;;15.00;;
70026;SDS011;57506;50.092;15.804;2022-12-18T06:57:06;54.97;;;16.05;;
70026;SDS011;57506;50.092;15.804;2022-12-18T06:59:32;53.03;;;15.13;;
70026;SDS011;57506;50.092;15.804;2022-12-18T07:01:58;45.33;;;13.43;;
70026;SDS011;57506;50.092;15.804;2022-12-18T07:04:28;47.37;;;13.83;;
70026;SDS011;57506;50.092;15.804;2022-12-18T07:06:56;58.47;;;16.17;;
70026;SDS011;57506;50.092;15.804;2022-12-18T07:09:23;53.30;;;16.95;;
70026;SDS011;57506;50.092;15.804;2022-12-18T07:11:48;41.65;;;15.50;;
70026;SDS011;57506;50.092;15.804;2022-12-18T07:14:14;49.77;;;16.97;;
70026;SDS011;57506;50.092;15.804;2022-12-18T07:16:40;50.00;;;16.33;;
70026;SDS011;57506;50.092;15.804;2022-12-18T07:19:05;51.63;;;15.40;;
70026;SDS011;57506;50.092;15.804;2022-12-18T07:21:31;58.40;;;15.97;;
70026;SDS011;57506;50.092;15.804;2022-12-18T07:23:57;48.83;;;14.95;;
70026;SDS011;57506;50.092;15.804;2022-12-18T07:26:22;50.77;;;14.10;;
70026;SDS011;57506;50.092;15.804;2022-12-18T07:28:48;51.63;;;15.93;;
70026;SDS011;57506;50.092;15.804;2022-12-18T07:31:16;50.20;;;15.40;;
70026;SDS011;57506;50.092;15.804;2022-12-18T07:33:43;54.60;;;15.13;;
70026;SDS011;57506;50.092;15.804;2022-12-18T07:36:09;49.90;;;15.45;;
70026;SDS011;57506;50.092;15.804;2022-12-18T07:38:35;53.13;;;17.17;;
70026;SDS011;57506;50.092;15.804;2022-12-18T07:41:01;48.53;;;16.30;;
70026;SDS011;57506;50.092;15.804;2022-12-18T07:43:37;50.38;;;16.02;;
70026;SDS011;57506;50.092;15.804;2022-12-18T07:46:04;54.67;;;17.27;;
70026;SDS011;57506;50.092;15.804;2022-12-18T07:48:30;51.67;;;15.60;;
70026;SDS011;57506;50.092;15.804;2022-12-18T07:50:59;43.25;;;13.77;;
70026;SDS011;57506;50.092;15.804;2022-12-18T07:53:26;52.45;;;15.07;;
70026;SDS011;57506;50.092;15.804;2022-12-18T07:55:55;45.40;;;15.00;;
70026;SDS011;57506;50.092;15.804;2022-12-18T07:58:22;48.53;;;15.40;;
70026;SDS011;57506;50.092;15.804;2022-12-18T08:00:47;38.40;;;12.27;;
70026;SDS011;57506;50.092;15.804;2022-12-18T08:06:07;49.95;;;16.90;;
70026;SDS011;57506;50.092;15.804;2022-12-18T08:08:34;57.27;;;16.20;;
70026;SDS011;57506;50.092;15.804;2022-12-18T08:11:00;51.88;;;16.45;;
70026;SDS011;57506;50.092;15.804;2022-12-18T08:13:26;55.85;;;16.48;;
70026;SDS011;57506;50.092;15.804;2022-12-18T08:15:56;56.13;;;15.10;;
70026;SDS011;57506;50.092;15.804;2022-12-18T08:18:26;58.95;;;16.70;;
70026;SDS011;57506;50.092;15.804;2022-12-18T08:20:53;64.35;;;18.25;;
70026;SDS011;57506;50.092;15.804;2022-12-18T08:23:19;55.83;;;14.93;;
70026;SDS011;57506;50.092;15.804;2022-12-18T08:25:45;64.40;;;18.95;;
70026;SDS011;57506;50.092;15.804;2022-12-18T08:28:11;61.08;;;16.67;;
70026;SDS011;57506;50.092;15.804;2022-12-18T08:30:37;60.37;;;16.73;;
70026;SDS011;57506;50.092;15.804;2022-12-18T08:33:03;67.05;;;18.50;;
70026;SDS011;57506;50.092;15.804;2022-12-18T08:35:28;75.65;;;19.02;;
70026;SDS011;57506;50.092;15.804;2022-12-18T08:37:54;74.77;;;20.10;;
70026;SDS011;57506;50.092;15.804;2022-12-18T08:40:19;65.40;;;17.13;;
70026;SDS011;57506;50.092;15.804;2022-12-18T08:42:45;63.97;;;18.67;;
70026;SDS011;57506;50.092;15.804;2022-12-18T08:45:29;58.60;;;17.50;;
70026;SDS011;57506;50.092;15.804;2022-12-18T08:47:55;66.37;;;17.97;;
70026;SDS011;57506;50.092;15.804;2022-12-18T08:50:21;63.65;;;18.40;;
70026;SDS011;57506;50.092;15.804;2022-12-18T08:52:46;59.77;;;16.73;;
70026;SDS011;57506;50.092;15.804;2022-12-18T08:55:12;62.10;;;17.43;;
70026;SDS011;57506;50.092;15.804;2022-12-18T08:57:37;65.43;;;16.90;;
70026;SDS011;57506;50.092;15.804;2022-12-18T09:00:03;70.40;;;18.03;;
70026;SDS011;57506;50.092;15.804;2022-12-18T09:02:29;57.10;;;15.77;;
70026;SDS011;57506;50.092;15.804;2022-12-18T09:04:55;44.63;;;14.63;;
70026;SDS011;57506;50.092;15.804;2022-12-18T09:07:20;43.97;;;14.32;;
70026;SDS011;57506;50.092;15.804;2022-12-18T09:09:46;46.07;;;15.90;;
70026;SDS011;57506;50.092;15.804;2022-12-18T09:12:11;44.93;;;15.77;;
70026;SDS011;57506;50.092;15.804;2022-12-18T09:14:37;48.35;;;17.35;;
70026;SDS011;57506;50.092;15.804;2022-12-18T09:17:03;40.93;;;14.73;;
70026;SDS011;57506;50.092;15.804;2022-12-18T09:19:29;41.30;;;14.25;;
70026;SDS011;57506;50.092;15.804;2022-12-18T09:21:54;47.97;;;16.23;;
70026;SDS011;57506;50.092;15.804;2022-12-18T09:24:23;37.25;;;13.75;;
70026;SDS011;57506;50.092;15.804;2022-12-18T09:26:52;34.50;;;13.07;;
70026;SDS011;57506;50.092;15.804;2022-12-18T09:29:18;41.80;;;14.18;;
70026;SDS011;57506;50.092;15.804;2022-12-18T09:31:44;42.45;;;15.68;;
70026;SDS011;57506;50.092;15.804;2022-12-18T09:34:10;43.17;;;14.40;;
70026;SDS011;57506;50.092;15.804;2022-12-18T09:36:35;46.15;;;16.90;;
70026;SDS011;57506;50.092;15.804;2022-12-18T09:39:02;38.93;;;13.83;;
70026;SDS011;57506;50.092;15.804;2022-12-18T09:46:56;39.73;;;15.07;;
70026;SDS011;57506;50.092;15.804;2022-12-18T09:49:24;35.47;;;12.82;;
70026;SDS011;57506;50.092;15.804;2022-12-18T09:51:55;38.38;;;14.32;;
70026;SDS011;57506;50.092;15.804;2022-12-18T09:54:29;40.58;;;14.02;;
70026;SDS011;57506;50.092;15.804;2022-12-18T09:57:01;42.33;;;15.60;;
70026;SDS011;57506;50.092;15.804;2022-12-18T09:59:29;46.22;;;16.63;;
70026;SDS011;57506;50.092;15.804;2022-12-18T10:02:00;40.42;;;14.00;;
70026;SDS011;57506;50.092;15.804;2022-12-18T10:04:37;39.88;;;13.13;;
70026;SDS011;57506;50.092;15.804;2022-12-18T10:07:18;35.10;;;13.93;;
70026;SDS011;57506;50.092;15.804;2022-12-18T10:15:30;32.95;;;12.77;;
70026;SDS011;57506;50.092;15.804;2022-12-18T10:18:26;35.85;;;15.10;;
70026;SDS011;57506;50.092;15.804;2022-12-18T10:20:56;41.05;;;15.75;;
70026;SDS011;57506;50.092;15.804;2022-12-18T10:23:34;35.85;;;13.80;;
70026;SDS011;57506;50.092;15.804;2022-12-18T10:26:16;32.40;;;12.88;;
70026;SDS011;57506;50.092;15.804;2022-12-18T10:28:42;44.80;;;13.77;;
70026;SDS011;57506;50.092;15.804;2022-12-18T10:31:16;43.17;;;15.65;;
70026;SDS011;57506;50.092;15.804;2022-12-18T10:33:44;54.10;;;23.88;;
70026;SDS011;57506;50.092;15.804;2022-12-18T10:36:10;58.65;;;28.50;;
70026;SDS011;57506;50.092;15.804;2022-12-18T10:38:36;50.15;;;16.58;;
70026;SDS011;57506;50.092;15.804;2022-12-18T10:41:06;42.80;;;14.90;;
70026;SDS011;57506;50.092;15.804;2022-12-18T10:43:47;43.78;;;15.35;;
70026;SDS011;57506;50.092;15.804;2022-12-18T10:46:14;48.63;;;15.90;;
70026;SDS011;57506;50.092;15.804;2022-12-18T10:54:02;36.63;;;13.23;;
70026;SDS011;57506;50.092;15.804;2022-12-18T10:56:31;47.58;;;17.65;;
70026;SDS011;57506;50.092;15.804;2022-12-18T10:59:04;38.90;;;16.00;;
70026;SDS011;57506;50.092;15.804;2022-12-18T11:01:54;31.25;;;12.27;;
70026;SDS011;57506;50.092;15.804;2022-12-18T11:07:00;36.30;;;13.10;;
70026;SDS011;57506;50.092;15.804;2022-12-18T11:09:40;43.53;;;15.05;;
70026;SDS011;57506;50.092;15.804;2022-12-18T11:12:15;36.60;;;14.18;;
70026;SDS011;57506;50.092;15.804;2022-12-18T11:14:52;40.42;;;15.85;;
70026;SDS011;57506;50.092;15.804;2022-12-18T11:17:31;43.50;;;17.83;;
70026;SDS011;57506;50.092;15.804;2022-12-18T11:20:03;41.50;;;17.03;;
70026;SDS011;57506;50.092;15.804;2022-12-18T11:22:32;41.08;;;16.95;;
70026;SDS011;57506;50.092;15.804;2022-12-18T11:27:31;47.88;;;19.13;;
70026;SDS011;57506;50.092;15.804;2022-12-18T11:30:13;43.03;;;17.40;;
70026;SDS011;57506;50.092;15.804;2022-12-18T11:35:40;39.80;;;14.95;;
70026;SDS011;57506;50.092;15.804;2022-12-18T11:38:12;43.35;;;17.00;;
70026;SDS011;57506;50.092;15.804;2022-12-18T11:40:58;41.80;;;16.45;;
70026;SDS011;57506;50.092;15.804;2022-12-18T11:46:13;37.67;;;13.13;;
70026;SDS011;57506;50.092;15.804;2022-12-18T11:48:52;40.35;;;13.98;;
70026;SDS011;57506;50.092;15.804;2022-12-18T11:51:28;43.50;;;17.30;;
70026;SDS011;57506;50.092;15.804;2022-12-18T11:54:00;31.10;;;12.65;;
70026;SDS011;57506;50.092;15.804;2022-12-18T11:56:30;30.40;;;12.30;;
70026;SDS011;57506;50.092;15.804;2022-12-18T11:59:37;31.65;;;12.15;;
70026;SDS011;57506;50.092;15.804;2022-12-18T12:30:21;26.20;;;11.18;;
70026;SDS011;57506;50.092;15.804;2022-12-18T12:33:24;26.23;;;10.10;;
70026;SDS011;57506;50.092;15.804;2022-12-18T12:38:36;32.13;;;13.02;;
70026;SDS011;57506;50.092;15.804;2022-12-18T12:41:17;36.97;;;14.35;;
70026;SDS011;57506;50.092;15.804;2022-12-18T12:44:06;34.30;;;11.65;;
70026;SDS011;57506;50.092;15.804;2022-12-18T12:46:37;37.47;;;14.87;;
70026;SDS011;57506;50.092;15.804;2022-12-18T12:49:11;30.17;;;12.48;;
70026;SDS011;57506;50.092;15.804;2022-12-18T12:51:41;34.08;;;12.73;;
70026;SDS011;57506;50.092;15.804;2022-12-18T12:54:29;36.50;;;12.93;;
70026;SDS011;57506;50.092;15.804;2022-12-18T12:59:47;26.70;;;11.03;;
70026;SDS011;57506;50.092;15.804;2022-12-18T13:05:00;36.00;;;13.75;;
70026;SDS011;57506;50.092;15.804;2022-12-18T13:10:35;30.73;;;12.90;;
70026;SDS011;57506;50.092;15.804;2022-12-18T13:23:26;25.67;;;10.63;;
70026;SDS011;57506;50.092;15.804;2022-12-18T13:36:42;29.05;;;11.65;;
70026;SDS011;57506;50.092;15.804;2022-12-18T13:39:10;33.63;;;13.60;;
70026;SDS011;57506;50.092;15.804;2022-12-18T13:41:38;29.60;;;11.77;;
70026;SDS011;57506;50.092;15.804;2022-12-18T13:46:55;34.92;;;13.05;;
70026;SDS011;57506;50.092;15.804;2022-12-18T13:49:22;33.87;;;12.47;;
70026;SDS011;57506;50.092;15.804;2022-12-18T13:51:55;31.77;;;12.65;;
70026;SDS011;57506;50.092;15.804;2022-12-18T13:54:34;30.45;;;11.43;;
70026;SDS011;57506;50.092;15.804;2022-12-18T13:57:03;29.88;;;11.63;;
70026;SDS011;57506;50.092;15.804;2022-12-18T14:04:37;33.80;;;13.82;;
70026;SDS011;57506;50.092;15.804;2022-12-18T14:07:04;34.33;;;12.73;;
70026;SDS011;57506;50.092;15.804;2022-12-18T14:09:40;31.30;;;13.30;;
70026;SDS011;57506;50.092;15.804;2022-12-18T14:12:35;32.35;;;13.82;;
70026;SDS011;57506;50.092;15.804;2022-12-18T14:20:40;35.50;;;14.43;;
70026;SDS011;57506;50.092;15.804;2022-12-18T14:26:29;30.77;;;11.63;;
70026;SDS011;57506;50.092;15.804;2022-12-18T14:28:53;32.72;;;11.90;;
70026;SDS011;57506;50.092;15.804;2022-12-18T14:31:23;38.85;;;13.35;;
70026;SDS011;57506;50.092;15.804;2022-12-18T14:33:51;35.92;;;12.95;;
70026;SDS011;57506;50.092;15.804;2022-12-18T14:36:19;37.77;;;15.70;;
70026;SDS011;57506;50.092;15.804;2022-12-18T14:38:53;30.67;;;13.20;;
70026;SDS011;57506;50.092;15.804;2022-12-18T14:41:21;44.80;;;17.10;;
70026;SDS011;57506;50.092;15.804;2022-12-18T14:43:49;43.65;;;16.30;;
70026;SDS011;57506;50.092;15.804;2022-12-18T14:48:53;31.33;;;11.80;;
70026;SDS011;57506;50.092;15.804;2022-12-18T14:51:23;34.97;;;13.45;;
70026;SDS011;57506;50.092;15.804;2022-12-18T14:54:03;37.92;;;15.65;;
70026;SDS011;57506;50.092;15.804;2022-12-18T14:56:35;36.47;;;13.35;;
70026;SDS011;57506;50.092;15.804;2022-12-18T14:59:03;43.78;;;15.68;;
70026;SDS011;57506;50.092;15.804;2022-12-18T15:02:01;38.17;;;14.63;;
70026;SDS011;57506;50.092;15.804;2022-12-18T15:04:53;38.40;;;15.57;;
70026;SDS011;57506;50.092;15.804;2022-12-18T15:07:39;56.10;;;19.98;;
70026;SDS011;57506;50.092;15.804;2022-12-18T15:13:06;83.85;;;23.35;;
70026;SDS011;57506;50.092;15.804;2022-12-18T15:20:40;40.85;;;15.02;;
70026;SDS011;57506;50.092;15.804;2022-12-18T15:25:41;52.40;;;20.65;;
70026;SDS011;57506;50.092;15.804;2022-12-18T15:33:37;50.22;;;18.73;;
70026;SDS011;57506;50.092;15.804;2022-12-18T15:36:10;49.23;;;16.10;;
70026;SDS011;57506;50.092;15.804;2022-12-18T15:38:38;43.53;;;16.52;;
70026;SDS011;57506;50.092;15.804;2022-12-18T15:41:03;37.50;;;15.73;;
70026;SDS011;57506;50.092;15.804;2022-12-18T15:43:29;43.27;;;16.00;;
70026;SDS011;57506;50.092;15.804;2022-12-18T15:46:02;45.80;;;16.33;;
70026;SDS011;57506;50.092;15.804;2022-12-18T15:48:30;43.47;;;16.75;;
70026;SDS011;57506;50.092;15.804;2022-12-18T15:50:58;53.40;;;18.55;;
70026;SDS011;57506;50.092;15.804;2022-12-18T15:53:25;56.03;;;17.73;;
70026;SDS011;57506;50.092;15.804;2022-12-18T15:55:55;45.85;;;16.17;;
70026;SDS011;57506;50.092;15.804;2022-12-18T15:58:40;46.38;;;16.70;;
70026;SDS011;57506;50.092;15.804;2022-12-18T16:01:05;38.93;;;15.97;;
70026;SDS011;57506;50.092;15.804;2022-12-18T16:03:34;38.38;;;17.30;;
70026;SDS011;57506;50.092;15.804;2022-12-18T16:05:59;36.78;;;15.80;;
70026;SDS011;57506;50.092;15.804;2022-12-18T16:08:27;40.10;;;15.32;;
70026;SDS011;57506;50.092;15.804;2022-12-18T16:10:54;45.65;;;18.30;;
70026;SDS011;57506;50.092;15.804;2022-12-18T16:13:20;47.13;;;17.75;;
70026;SDS011;57506;50.092;15.804;2022-12-18T16:15:46;42.90;;;14.77;;
70026;SDS011;57506;50.092;15.804;2022-12-18T16:18:12;51.77;;;17.77;;
70026;SDS011;57506;50.092;15.804;2022-12-18T16:20:37;52.50;;;19.80;;
70026;SDS011;57506;50.092;15.804;2022-12-18T16:23:03;45.53;;;17.00;;
70026;SDS011;57506;50.092;15.804;2022-12-18T16:25:29;42.60;;;16.13;;
70026;SDS011;57506;50.092;15.804;2022-12-18T16:27:55;47.23;;;16.60;;
70026;SDS011;57506;50.092;15.804;2022-12-18T16:30:23;54.53;;;18.80;;
70026;SDS011;57506;50.092;15.804;2022-12-18T16:32:52;45.80;;;18.13;;
70026;SDS011;57506;50.092;15.804;2022-12-18T16:35:19;55.78;;;18.40;;
70026;SDS011;57506;50.092;15.804;2022-12-18T16:37:44;54.87;;;20.40;;
70026;SDS011;57506;50.092;15.804;2022-12-18T16:40:11;43.38;;;16.98;;
70026;SDS011;57506;50.092;15.804;2022-12-18T16:42:39;44.30;;;16.80;;
70026;SDS011;57506;50.092;15.804;2022-12-18T16:45:07;42.45;;;16.08;;
70026;SDS011;57506;50.092;15.804;2022-12-18T16:47:35;49.45;;;18.90;;
70026;SDS011;57506;50.092;15.804;2022-12-18T16:50:01;50.05;;;18.50;;
70026;SDS011;57506;50.092;15.804;2022-12-18T16:52:27;51.73;;;18.43;;
70026;SDS011;57506;50.092;15.804;2022-12-18T16:54:52;47.45;;;18.17;;
70026;SDS011;57506;50.092;15.804;2022-12-18T16:57:19;53.90;;;19.85;;
70026;SDS011;57506;50.092;15.804;2022-12-18T16:59:45;54.78;;;19.17;;
70026;SDS011;57506;50.092;15.804;2022-12-18T17:02:12;53.97;;;22.88;;